sensor_id;sensor_type;location;lat;lon;timestamp;temperature;humidity
21033;DHT22;10675;47.976;7.824;2023-08-20T00:01:05;22.40;99.90
21033;DHT22;10675;47.976;7.824;2023-08-20T00:03:31;22.30;99.90
21033;DHT22;10675;47.976;7.824;2023-08-20T00:05:57;22.30;99.90
21033;DHT22;10675;47.976;7.824;2023-08-20T00:08:23;22.30;99.90
21033;DHT22;10675;47.976;7.824;2023-08-20T00:10:49;22.20;99.90
21033;DHT22;10675;47.976;7.824;2023-08-20T00:13:14;22.20;99.90
21033;DHT22;10675;47.976;7.824;2023-08-20T00:15:40;22.20;99.90
21033;DHT22;10675;47.976;7.824;2023-08-20T00:18:06;22.20;99.90
21033;DHT22;10675;47.976;7.824;2023-08-20T00:20:32;22.20;99.90
21033;DHT22;10675;47.976;7.824;2023-08-20T00:22:59;22.10;99.90
21033;DHT22;10675;47.976;7.824;2023-08-20T00:25:25;22.10;99.90
21033;DHT22;10675;47.976;7.824;2023-08-20T00:27:50;22.00;99.90
21033;DHT22;10675;47.976;7.824;2023-08-20T00:30:16;21.90;99.90
21033;DHT22;10675;47.976;7.824;2023-08-20T00:32:41;21.90;99.90
21033;DHT22;10675;47.976;7.824;2023-08-20T00:35:07;21.90;99.90
21033;DHT22;10675;47.976;7.824;2023-08-20T00:37:33;22.00;99.90
21033;DHT22;10675;47.976;7.824;2023-08-20T00:39:59;22.00;99.90
21033;DHT22;10675;47.976;7.824;2023-08-20T00:42:25;22.00;99.90
21033;DHT22;10675;47.976;7.824;2023-08-20T00:44:53;21.90;99.90
21033;DHT22;10675;47.976;7.824;2023-08-20T00:47:19;21.90;99.90
21033;DHT22;10675;47.976;7.824;2023-08-20T00:49:46;21.90;99.90
21033;DHT22;10675;47.976;7.824;2023-08-20T00:52:14;21.90;99.90
21033;DHT22;10675;47.976;7.824;2023-08-20T00:54:41;21.90;99.90
21033;DHT22;10675;47.976;7.824;2023-08-20T00:57:08;21.90;99.90
21033;DHT22;10675;47.976;7.824;2023-08-20T00:59:34;21.90;99.90
21033;DHT22;10675;47.976;7.824;2023-08-20T01:02:00;21.90;99.90
21033;DHT22;10675;47.976;7.824;2023-08-20T01:04:28;22.00;99.90
21033;DHT22;10675;47.976;7.824;2023-08-20T01:07:30;21.90;99.90
21033;DHT22;10675;47.976;7.824;2023-08-20T01:13:04;21.70;99.90
21033;DHT22;10675;47.976;7.824;2023-08-20T01:15:30;21.60;99.90
21033;DHT22;10675;47.976;7.824;2023-08-20T01:17:55;21.60;99.90
21033;DHT22;10675;47.976;7.824;2023-08-20T01:20:24;21.60;99.90
21033;DHT22;10675;47.976;7.824;2023-08-20T01:28:20;21.50;99.90
21033;DHT22;10675;47.976;7.824;2023-08-20T01:30:46;21.40;99.90
21033;DHT22;10675;47.976;7.824;2023-08-20T01:33:13;21.30;99.90
21033;DHT22;10675;47.976;7.824;2023-08-20T01:35:40;21.30;99.90
21033;DHT22;10675;47.976;7.824;2023-08-20T01:38:05;21.20;99.90
21033;DHT22;10675;47.976;7.824;2023-08-20T01:40:31;21.30;99.90
21033;DHT22;10675;47.976;7.824;2023-08-20T01:42:57;21.40;99.90
21033;DHT22;10675;47.976;7.824;2023-08-20T01:45:23;21.40;99.90
21033;DHT22;10675;47.976;7.824;2023-08-20T01:47:48;21.30;99.90
21033;DHT22;10675;47.976;7.824;2023-08-20T01:50:14;21.30;99.90
21033;DHT22;10675;47.976;7.824;2023-08-20T01:52:40;21.30;99.90
21033;DHT22;10675;47.976;7.824;2023-08-20T01:55:06;21.40;99.90
21033;DHT22;10675;47.976;7.824;2023-08-20T01:57:31;21.40;99.90
21033;DHT22;10675;47.976;7.824;2023-08-20T01:59:57;21.30;99.90
21033;DHT22;10675;47.976;7.824;2023-08-20T02:02:24;21.30;99.90
21033;DHT22;10675;47.976;7.824;2023-08-20T02:04:49;21.20;99.90
21033;DHT22;10675;47.976;7.824;2023-08-20T02:07:15;21.20;99.90
21033;DHT22;10675;47.976;7.824;2023-08-20T02:09:41;21.30;99.90
21033;DHT22;10675;47.976;7.824;2023-08-20T02:12:07;21.30;99.90
21033;DHT22;10675;47.976;7.824;2023-08-20T02:14:32;21.30;99.90
21033;DHT22;10675;47.976;7.824;2023-08-20T02:17:01;21.20;99.90
21033;DHT22;10675;47.976;7.824;2023-08-20T02:19:27;21.20;99.90
21033;DHT22;10675;47.976;7.824;2023-08-20T02:21:53;21.20;99.90
21033;DHT22;10675;47.976;7.824;2023-08-20T02:24:18;21.20;99.90
21033;DHT22;10675;47.976;7.824;2023-08-20T02:26:44;21.30;99.90
21033;DHT22;10675;47.976;7.824;2023-08-20T02:29:09;21.30;99.90
21033;DHT22;10675;47.976;7.824;2023-08-20T02:31:35;21.30;99.90
21033;DHT22;10675;47.976;7.824;2023-08-20T02:34:01;21.30;99.90
21033;DHT22;10675;47.976;7.824;2023-08-20T02:36:26;21.20;99.90
21033;DHT22;10675;47.976;7.824;2023-08-20T02:38:52;21.30;99.90
21033;DHT22;10675;47.976;7.824;2023-08-20T02:41:18;21.30;99.90
21033;DHT22;10675;47.976;7.824;2023-08-20T02:43:44;21.30;99.90
21033;DHT22;10675;47.976;7.824;2023-08-20T02:46:10;21.30;99.90
21033;DHT22;10675;47.976;7.824;2023-08-20T02:48:35;21.40;99.90
21033;DHT22;10675;47.976;7.824;2023-08-20T02:51:01;21.40;99.90
21033;DHT22;10675;47.976;7.824;2023-08-20T02:53:26;21.50;99.90
21033;DHT22;10675;47.976;7.824;2023-08-20T02:55:52;21.50;99.90
21033;DHT22;10675;47.976;7.824;2023-08-20T02:58:17;21.40;99.90
21033;DHT22;10675;47.976;7.824;2023-08-20T03:00:43;21.50;99.90
21033;DHT22;10675;47.976;7.824;2023-08-20T03:03:10;21.40;99.90
21033;DHT22;10675;47.976;7.824;2023-08-20T03:05:36;21.30;99.90
21033;DHT22;10675;47.976;7.824;2023-08-20T03:08:02;21.20;99.90
21033;DHT22;10675;47.976;7.824;2023-08-20T03:10:29;21.20;99.90
21033;DHT22;10675;47.976;7.824;2023-08-20T03:12:55;21.20;99.90
21033;DHT22;10675;47.976;7.824;2023-08-20T03:15:20;21.30;99.90
21033;DHT22;10675;47.976;7.824;2023-08-20T03:17:46;21.30;99.90
21033;DHT22;10675;47.976;7.824;2023-08-20T03:20:11;21.30;99.90
21033;DHT22;10675;47.976;7.824;2023-08-20T03:22:38;21.20;99.90
21033;DHT22;10675;47.976;7.824;2023-08-20T03:25:04;21.00;99.90
21033;DHT22;10675;47.976;7.824;2023-08-20T03:27:29;20.90;99.90
21033;DHT22;10675;47.976;7.824;2023-08-20T03:29:55;20.80;99.90
21033;DHT22;10675;47.976;7.824;2023-08-20T03:32:21;20.80;99.90
21033;DHT22;10675;47.976;7.824;2023-08-20T03:34:46;20.80;99.90
21033;DHT22;10675;47.976;7.824;2023-08-20T03:37:12;20.90;99.90
21033;DHT22;10675;47.976;7.824;2023-08-20T03:39:37;20.90;99.90
21033;DHT22;10675;47.976;7.824;2023-08-20T03:42:03;20.90;99.90
21033;DHT22;10675;47.976;7.824;2023-08-20T03:44:29;20.90;99.90
21033;DHT22;10675;47.976;7.824;2023-08-20T03:46:55;20.90;99.90
21033;DHT22;10675;47.976;7.824;2023-08-20T03:49:21;20.90;99.90
21033;DHT22;10675;47.976;7.824;2023-08-20T03:51:47;21.00;99.90
21033;DHT22;10675;47.976;7.824;2023-08-20T03:54:13;20.90;99.90
21033;DHT22;10675;47.976;7.824;2023-08-20T03:56:38;20.90;99.90
21033;DHT22;10675;47.976;7.824;2023-08-20T03:59:04;21.00;99.90
21033;DHT22;10675;47.976;7.824;2023-08-20T04:01:29;20.90;99.90
21033;DHT22;10675;47.976;7.824;2023-08-20T04:03:55;20.90;99.90
21033;DHT22;10675;47.976;7.824;2023-08-20T04:06:21;20.80;99.90
21033;DHT22;10675;47.976;7.824;2023-08-20T04:08:46;20.80;99.90
21033;DHT22;10675;47.976;7.824;2023-08-20T04:11:12;20.90;99.90
21033;DHT22;10675;47.976;7.824;2023-08-20T04:13:37;21.70;99.90
21033;DHT22;10675;47.976;7.824;2023-08-20T04:16:03;20.90;99.90
21033;DHT22;10675;47.976;7.824;2023-08-20T04:18:28;20.80;99.90
21033;DHT22;10675;47.976;7.824;2023-08-20T04:20:54;20.80;99.90
21033;DHT22;10675;47.976;7.824;2023-08-20T04:23:20;20.70;99.90
21033;DHT22;10675;47.976;7.824;2023-08-20T04:25:46;20.50;99.90
21033;DHT22;10675;47.976;7.824;2023-08-20T04:28:12;20.60;99.90
21033;DHT22;10675;47.976;7.824;2023-08-20T04:30:38;20.60;99.90
21033;DHT22;10675;47.976;7.824;2023-08-20T04:33:04;20.70;99.90
21033;DHT22;10675;47.976;7.824;2023-08-20T04:35:30;20.60;99.90
21033;DHT22;10675;47.976;7.824;2023-08-20T04:37:55;20.70;99.90
21033;DHT22;10675;47.976;7.824;2023-08-20T04:40:21;20.70;99.90
21033;DHT22;10675;47.976;7.824;2023-08-20T04:42:46;20.80;99.90
21033;DHT22;10675;47.976;7.824;2023-08-20T04:45:12;20.90;99.90
21033;DHT22;10675;47.976;7.824;2023-08-20T04:47:38;20.90;99.90
21033;DHT22;10675;47.976;7.824;2023-08-20T04:50:04;20.90;99.90
21033;DHT22;10675;47.976;7.824;2023-08-20T04:52:33;20.90;99.90
21033;DHT22;10675;47.976;7.824;2023-08-20T04:55:00;21.00;99.90
21033;DHT22;10675;47.976;7.824;2023-08-20T04:57:25;21.00;99.90
21033;DHT22;10675;47.976;7.824;2023-08-20T04:59:51;20.90;99.90
21033;DHT22;10675;47.976;7.824;2023-08-20T05:02:16;20.90;99.90
21033;DHT22;10675;47.976;7.824;2023-08-20T05:04:42;21.10;99.90
21033;DHT22;10675;47.976;7.824;2023-08-20T05:07:08;21.10;99.90
21033;DHT22;10675;47.976;7.824;2023-08-20T05:09:34;21.10;99.90
21033;DHT22;10675;47.976;7.824;2023-08-20T05:12:00;21.20;99.90
21033;DHT22;10675;47.976;7.824;2023-08-20T05:14:25;21.10;99.90
21033;DHT22;10675;47.976;7.824;2023-08-20T05:16:51;21.10;99.90
21033;DHT22;10675;47.976;7.824;2023-08-20T05:19:16;21.10;99.90
21033;DHT22;10675;47.976;7.824;2023-08-20T05:21:42;21.10;99.90
21033;DHT22;10675;47.976;7.824;2023-08-20T05:24:07;21.10;99.90
21033;DHT22;10675;47.976;7.824;2023-08-20T05:26:34;21.10;99.90
21033;DHT22;10675;47.976;7.824;2023-08-20T05:28:59;21.10;99.90
21033;DHT22;10675;47.976;7.824;2023-08-20T05:31:25;21.10;99.90
21033;DHT22;10675;47.976;7.824;2023-08-20T05:33:50;21.10;99.90
21033;DHT22;10675;47.976;7.824;2023-08-20T05:36:16;21.20;99.90
21033;DHT22;10675;47.976;7.824;2023-08-20T05:38:41;21.30;99.90
21033;DHT22;10675;47.976;7.824;2023-08-20T05:41:10;21.40;99.90
21033;DHT22;10675;47.976;7.824;2023-08-20T05:43:35;21.40;99.90
21033;DHT22;10675;47.976;7.824;2023-08-20T05:46:03;21.40;99.90
21033;DHT22;10675;47.976;7.824;2023-08-20T05:48:29;21.40;99.90
21033;DHT22;10675;47.976;7.824;2023-08-20T05:50:55;21.50;99.90
21033;DHT22;10675;47.976;7.824;2023-08-20T05:53:22;21.60;99.90
21033;DHT22;10675;47.976;7.824;2023-08-20T05:55:48;21.70;99.90
21033;DHT22;10675;47.976;7.824;2023-08-20T05:58:13;21.80;99.90
21033;DHT22;10675;47.976;7.824;2023-08-20T06:00:39;22.00;99.90
21033;DHT22;10675;47.976;7.824;2023-08-20T06:03:05;22.10;99.90
21033;DHT22;10675;47.976;7.824;2023-08-20T06:05:30;22.20;99.90
21033;DHT22;10675;47.976;7.824;2023-08-20T06:07:56;22.30;99.90
21033;DHT22;10675;47.976;7.824;2023-08-20T06:10:22;22.30;99.90
21033;DHT22;10675;47.976;7.824;2023-08-20T06:12:47;22.50;99.90
21033;DHT22;10675;47.976;7.824;2023-08-20T06:15:14;22.60;99.90
21033;DHT22;10675;47.976;7.824;2023-08-20T06:17:40;22.70;99.90
21033;DHT22;10675;47.976;7.824;2023-08-20T06:20:06;22.80;99.90
21033;DHT22;10675;47.976;7.824;2023-08-20T06:22:34;22.80;99.90
21033;DHT22;10675;47.976;7.824;2023-08-20T06:24:59;22.70;99.90
21033;DHT22;10675;47.976;7.824;2023-08-20T06:27:25;22.80;99.90
21033;DHT22;10675;47.976;7.824;2023-08-20T06:29:51;23.00;99.90
21033;DHT22;10675;47.976;7.824;2023-08-20T06:32:16;23.00;99.90
21033;DHT22;10675;47.976;7.824;2023-08-20T06:34:42;23.10;99.90
21033;DHT22;10675;47.976;7.824;2023-08-20T06:37:07;23.30;99.90
21033;DHT22;10675;47.976;7.824;2023-08-20T06:39:33;23.40;99.90
21033;DHT22;10675;47.976;7.824;2023-08-20T06:41:58;24.20;99.90
21033;DHT22;10675;47.976;7.824;2023-08-20T06:44:24;24.40;99.90
21033;DHT22;10675;47.976;7.824;2023-08-20T06:46:49;24.40;99.90
21033;DHT22;10675;47.976;7.824;2023-08-20T06:49:15;24.80;99.90
21033;DHT22;10675;47.976;7.824;2023-08-20T06:51:40;25.00;99.90
21033;DHT22;10675;47.976;7.824;2023-08-20T06:54:06;24.60;99.90
21033;DHT22;10675;47.976;7.824;2023-08-20T06:56:32;24.70;99.90
21033;DHT22;10675;47.976;7.824;2023-08-20T06:58:58;25.20;99.90
21033;DHT22;10675;47.976;7.824;2023-08-20T07:01:23;25.40;99.90
21033;DHT22;10675;47.976;7.824;2023-08-20T07:03:49;25.50;99.90
21033;DHT22;10675;47.976;7.824;2023-08-20T07:06:14;25.20;99.90
21033;DHT22;10675;47.976;7.824;2023-08-20T07:08:41;25.00;99.90
21033;DHT22;10675;47.976;7.824;2023-08-20T07:11:07;25.10;99.90
21033;DHT22;10675;47.976;7.824;2023-08-20T07:13:33;25.00;99.90
21033;DHT22;10675;47.976;7.824;2023-08-20T07:15:59;25.00;99.90
21033;DHT22;10675;47.976;7.824;2023-08-20T07:18:25;25.00;99.90
21033;DHT22;10675;47.976;7.824;2023-08-20T07:20:50;25.00;99.90
21033;DHT22;10675;47.976;7.824;2023-08-20T07:23:17;25.20;99.90
21033;DHT22;10675;47.976;7.824;2023-08-20T07:25:43;25.30;99.90
21033;DHT22;10675;47.976;7.824;2023-08-20T07:28:10;25.30;99.90
21033;DHT22;10675;47.976;7.824;2023-08-20T07:30:36;25.10;99.90
21033;DHT22;10675;47.976;7.824;2023-08-20T07:33:03;25.10;99.90
21033;DHT22;10675;47.976;7.824;2023-08-20T07:35:28;25.20;99.90
21033;DHT22;10675;47.976;7.824;2023-08-20T07:37:54;25.40;99.90
21033;DHT22;10675;47.976;7.824;2023-08-20T07:40:20;25.80;99.90
21033;DHT22;10675;47.976;7.824;2023-08-20T07:42:46;25.60;99.90
21033;DHT22;10675;47.976;7.824;2023-08-20T07:45:12;25.80;99.90
21033;DHT22;10675;47.976;7.824;2023-08-20T07:47:39;26.20;99.90
21033;DHT22;10675;47.976;7.824;2023-08-20T07:50:05;26.50;99.90
21033;DHT22;10675;47.976;7.824;2023-08-20T07:52:34;26.50;99.90
21033;DHT22;10675;47.976;7.824;2023-08-20T07:55:00;26.60;99.90
21033;DHT22;10675;47.976;7.824;2023-08-20T07:57:25;26.80;99.90
21033;DHT22;10675;47.976;7.824;2023-08-20T07:59:51;26.70;99.90
21033;DHT22;10675;47.976;7.824;2023-08-20T08:02:16;26.80;99.90
21033;DHT22;10675;47.976;7.824;2023-08-20T08:04:43;26.80;99.90
21033;DHT22;10675;47.976;7.824;2023-08-20T08:07:12;26.70;99.90
21033;DHT22;10675;47.976;7.824;2023-08-20T08:09:37;26.80;99.90
21033;DHT22;10675;47.976;7.824;2023-08-20T08:12:03;26.80;99.90
21033;DHT22;10675;47.976;7.824;2023-08-20T08:14:29;27.00;99.90
21033;DHT22;10675;47.976;7.824;2023-08-20T08:16:55;27.00;99.90
21033;DHT22;10675;47.976;7.824;2023-08-20T08:19:21;26.80;99.90
21033;DHT22;10675;47.976;7.824;2023-08-20T08:21:47;26.70;99.90
21033;DHT22;10675;47.976;7.824;2023-08-20T08:24:13;26.60;99.90
21033;DHT22;10675;47.976;7.824;2023-08-20T08:26:40;26.70;99.90
21033;DHT22;10675;47.976;7.824;2023-08-20T08:29:06;26.70;99.90
21033;DHT22;10675;47.976;7.824;2023-08-20T08:31:32;26.90;99.90
21033;DHT22;10675;47.976;7.824;2023-08-20T08:33:58;26.90;99.90
21033;DHT22;10675;47.976;7.824;2023-08-20T08:36:24;27.00;99.90
21033;DHT22;10675;47.976;7.824;2023-08-20T08:38:54;27.20;99.90
21033;DHT22;10675;47.976;7.824;2023-08-20T08:41:22;26.90;99.90
21033;DHT22;10675;47.976;7.824;2023-08-20T08:43:50;26.70;99.90
21033;DHT22;10675;47.976;7.824;2023-08-20T08:46:16;26.70;99.90
21033;DHT22;10675;47.976;7.824;2023-08-20T08:48:45;26.90;99.90
21033;DHT22;10675;47.976;7.824;2023-08-20T08:51:12;27.10;99.90
21033;DHT22;10675;47.976;7.824;2023-08-20T08:53:38;27.20;99.90
21033;DHT22;10675;47.976;7.824;2023-08-20T08:56:04;27.30;99.90
21033;DHT22;10675;47.976;7.824;2023-08-20T08:58:32;27.30;99.90
21033;DHT22;10675;47.976;7.824;2023-08-20T09:00:58;27.50;99.90
21033;DHT22;10675;47.976;7.824;2023-08-20T09:03:24;27.50;99.90
21033;DHT22;10675;47.976;7.824;2023-08-20T09:05:58;27.60;99.90
21033;DHT22;10675;47.976;7.824;2023-08-20T09:08:32;27.60;99.90
21033;DHT22;10675;47.976;7.824;2023-08-20T09:11:00;27.60;99.90
21033;DHT22;10675;47.976;7.824;2023-08-20T09:13:39;27.70;99.90
21033;DHT22;10675;47.976;7.824;2023-08-20T09:16:09;28.00;99.90
21033;DHT22;10675;47.976;7.824;2023-08-20T09:21:09;28.20;99.90
21033;DHT22;10675;47.976;7.824;2023-08-20T09:23:35;28.30;99.90
21033;DHT22;10675;47.976;7.824;2023-08-20T09:26:02;28.30;99.40
21033;DHT22;10675;47.976;7.824;2023-08-20T09:28:28;28.40;99.00
21033;DHT22;10675;47.976;7.824;2023-08-20T09:31:00;28.60;99.00
21033;DHT22;10675;47.976;7.824;2023-08-20T09:33:29;28.50;98.80
21033;DHT22;10675;47.976;7.824;2023-08-20T09:35:54;28.40;98.20
21033;DHT22;10675;47.976;7.824;2023-08-20T09:38:21;28.60;98.60
21033;DHT22;10675;47.976;7.824;2023-08-20T09:40:54;28.70;98.60
21033;DHT22;10675;47.976;7.824;2023-08-20T09:43:24;28.80;98.20
21033;DHT22;10675;47.976;7.824;2023-08-20T09:45:55;28.90;97.20
21033;DHT22;10675;47.976;7.824;2023-08-20T09:48:21;28.90;96.70
21033;DHT22;10675;47.976;7.824;2023-08-20T09:50:51;29.00;96.70
21033;DHT22;10675;47.976;7.824;2023-08-20T09:53:37;29.10;96.30
21033;DHT22;10675;47.976;7.824;2023-08-20T09:56:27;29.20;96.30
21033;DHT22;10675;47.976;7.824;2023-08-20T09:58:54;29.20;95.40
21033;DHT22;10675;47.976;7.824;2023-08-20T10:01:20;29.10;95.70
21033;DHT22;10675;47.976;7.824;2023-08-20T10:03:46;29.10;95.90
21033;DHT22;10675;47.976;7.824;2023-08-20T10:06:12;29.30;95.40
21033;DHT22;10675;47.976;7.824;2023-08-20T10:08:38;29.40;95.40
21033;DHT22;10675;47.976;7.824;2023-08-20T10:11:04;29.40;95.30
21033;DHT22;10675;47.976;7.824;2023-08-20T10:13:30;29.10;93.70
21033;DHT22;10675;47.976;7.824;2023-08-20T10:15:56;29.10;94.20
21033;DHT22;10675;47.976;7.824;2023-08-20T10:18:22;29.30;94.20
21033;DHT22;10675;47.976;7.824;2023-08-20T10:20:50;29.50;94.20
21033;DHT22;10675;47.976;7.824;2023-08-20T10:23:20;29.70;92.60
21033;DHT22;10675;47.976;7.824;2023-08-20T10:25:48;29.90;92.20
21033;DHT22;10675;47.976;7.824;2023-08-20T10:28:23;30.00;91.90
21033;DHT22;10675;47.976;7.824;2023-08-20T10:33:47;30.10;91.40
21033;DHT22;10675;47.976;7.824;2023-08-20T10:36:16;30.20;91.10
21033;DHT22;10675;47.976;7.824;2023-08-20T10:38:44;30.30;90.80
21033;DHT22;10675;47.976;7.824;2023-08-20T10:41:11;30.40;90.10
21033;DHT22;10675;47.976;7.824;2023-08-20T10:43:45;30.30;89.60
21033;DHT22;10675;47.976;7.824;2023-08-20T10:46:21;30.30;88.50
21033;DHT22;10675;47.976;7.824;2023-08-20T10:48:51;30.40;88.30
21033;DHT22;10675;47.976;7.824;2023-08-20T10:51:32;30.50;87.90
21033;DHT22;10675;47.976;7.824;2023-08-20T10:56:43;30.70;89.00
21033;DHT22;10675;47.976;7.824;2023-08-20T10:59:21;30.70;88.30
21033;DHT22;10675;47.976;7.824;2023-08-20T11:01:49;30.70;89.70
21033;DHT22;10675;47.976;7.824;2023-08-20T11:04:22;30.70;89.00
21033;DHT22;10675;47.976;7.824;2023-08-20T11:06:56;30.40;89.00
21033;DHT22;10675;47.976;7.824;2023-08-20T11:09:22;30.10;89.00
21033;DHT22;10675;47.976;7.824;2023-08-20T11:11:48;30.40;89.40
21033;DHT22;10675;47.976;7.824;2023-08-20T11:14:14;30.60;88.40
21033;DHT22;10675;47.976;7.824;2023-08-20T11:16:41;30.40;87.20
21033;DHT22;10675;47.976;7.824;2023-08-20T11:19:07;30.40;88.00
21033;DHT22;10675;47.976;7.824;2023-08-20T11:21:37;30.40;88.10
21033;DHT22;10675;47.976;7.824;2023-08-20T11:24:04;30.50;88.70
21033;DHT22;10675;47.976;7.824;2023-08-20T11:26:30;30.70;87.70
21033;DHT22;10675;47.976;7.824;2023-08-20T11:28:56;30.90;86.80
21033;DHT22;10675;47.976;7.824;2023-08-20T11:31:22;31.00;84.30
21033;DHT22;10675;47.976;7.824;2023-08-20T11:33:48;31.10;83.70
21033;DHT22;10675;47.976;7.824;2023-08-20T11:36:15;31.10;82.00
21033;DHT22;10675;47.976;7.824;2023-08-20T11:38:42;31.10;82.30
21033;DHT22;10675;47.976;7.824;2023-08-20T11:41:08;31.10;82.80
21033;DHT22;10675;47.976;7.824;2023-08-20T11:43:34;31.20;81.90
21033;DHT22;10675;47.976;7.824;2023-08-20T11:45:59;31.40;83.30
21033;DHT22;10675;47.976;7.824;2023-08-20T11:48:25;31.30;81.90
21033;DHT22;10675;47.976;7.824;2023-08-20T11:50:51;31.30;81.40
21033;DHT22;10675;47.976;7.824;2023-08-20T11:53:23;31.30;80.80
21033;DHT22;10675;47.976;7.824;2023-08-20T11:55:49;31.50;81.50
21033;DHT22;10675;47.976;7.824;2023-08-20T11:58:15;31.60;81.10
21033;DHT22;10675;47.976;7.824;2023-08-20T12:00:40;31.70;80.30
21033;DHT22;10675;47.976;7.824;2023-08-20T12:03:08;31.90;81.70
21033;DHT22;10675;47.976;7.824;2023-08-20T12:05:34;32.00;79.20
21033;DHT22;10675;47.976;7.824;2023-08-20T12:08:03;32.10;80.30
21033;DHT22;10675;47.976;7.824;2023-08-20T12:10:30;32.10;79.00
21033;DHT22;10675;47.976;7.824;2023-08-20T12:12:57;32.10;79.80
21033;DHT22;10675;47.976;7.824;2023-08-20T12:15:24;32.10;78.50
21033;DHT22;10675;47.976;7.824;2023-08-20T12:18:03;32.00;78.80
21033;DHT22;10675;47.976;7.824;2023-08-20T12:20:33;32.10;77.40
21033;DHT22;10675;47.976;7.824;2023-08-20T12:23:01;32.10;79.10
21033;DHT22;10675;47.976;7.824;2023-08-20T12:25:30;32.00;79.30
21033;DHT22;10675;47.976;7.824;2023-08-20T12:27:56;32.10;78.90
21033;DHT22;10675;47.976;7.824;2023-08-20T12:30:22;32.20;79.10
21033;DHT22;10675;47.976;7.824;2023-08-20T12:32:47;32.30;78.90
21033;DHT22;10675;47.976;7.824;2023-08-20T12:35:13;32.30;78.00
21033;DHT22;10675;47.976;7.824;2023-08-20T12:37:38;32.20;78.40
21033;DHT22;10675;47.976;7.824;2023-08-20T12:40:05;32.20;78.90
21033;DHT22;10675;47.976;7.824;2023-08-20T12:42:38;32.00;79.90
21033;DHT22;10675;47.976;7.824;2023-08-20T12:45:06;32.00;80.40
21033;DHT22;10675;47.976;7.824;2023-08-20T12:47:32;32.50;81.20
21033;DHT22;10675;47.976;7.824;2023-08-20T12:49:57;32.80;80.00
21033;DHT22;10675;47.976;7.824;2023-08-20T12:52:23;32.90;78.10
21033;DHT22;10675;47.976;7.824;2023-08-20T12:54:48;33.00;77.20
21033;DHT22;10675;47.976;7.824;2023-08-20T12:57:14;33.10;75.20
21033;DHT22;10675;47.976;7.824;2023-08-20T12:59:39;33.20;74.40
21033;DHT22;10675;47.976;7.824;2023-08-20T13:02:05;33.00;73.50
21033;DHT22;10675;47.976;7.824;2023-08-20T13:04:31;33.30;73.10
21033;DHT22;10675;47.976;7.824;2023-08-20T13:06:56;33.20;71.40
21033;DHT22;10675;47.976;7.824;2023-08-20T13:09:22;33.60;72.40
21033;DHT22;10675;47.976;7.824;2023-08-20T13:11:48;33.60;70.10
21033;DHT22;10675;47.976;7.824;2023-08-20T13:14:14;33.40;70.20
21033;DHT22;10675;47.976;7.824;2023-08-20T13:16:40;33.50;67.40
21033;DHT22;10675;47.976;7.824;2023-08-20T13:19:06;33.80;65.00
21033;DHT22;10675;47.976;7.824;2023-08-20T13:21:32;33.90;65.70
21033;DHT22;10675;47.976;7.824;2023-08-20T13:23:57;34.30;65.40
21033;DHT22;10675;47.976;7.824;2023-08-20T13:26:23;34.30;65.00
21033;DHT22;10675;47.976;7.824;2023-08-20T13:28:48;34.20;65.50
21033;DHT22;10675;47.976;7.824;2023-08-20T13:31:15;34.40;65.10
21033;DHT22;10675;47.976;7.824;2023-08-20T13:33:40;34.40;66.30
21033;DHT22;10675;47.976;7.824;2023-08-20T13:36:06;34.40;65.50
21033;DHT22;10675;47.976;7.824;2023-08-20T13:38:32;34.60;63.40
21033;DHT22;10675;47.976;7.824;2023-08-20T13:40:58;34.20;63.30
21033;DHT22;10675;47.976;7.824;2023-08-20T13:43:24;34.50;64.10
21033;DHT22;10675;47.976;7.824;2023-08-20T13:45:49;34.00;64.60
21033;DHT22;10675;47.976;7.824;2023-08-20T13:48:15;33.80;66.60
21033;DHT22;10675;47.976;7.824;2023-08-20T13:50:40;33.40;68.60
21033;DHT22;10675;47.976;7.824;2023-08-20T13:53:06;33.10;68.70
21033;DHT22;10675;47.976;7.824;2023-08-20T13:55:31;32.80;70.70
21033;DHT22;10675;47.976;7.824;2023-08-20T13:57:57;33.00;71.80
21033;DHT22;10675;47.976;7.824;2023-08-20T14:00:22;33.00;70.60
21033;DHT22;10675;47.976;7.824;2023-08-20T14:02:48;32.80;67.50
21033;DHT22;10675;47.976;7.824;2023-08-20T14:05:13;32.80;69.00
21033;DHT22;10675;47.976;7.824;2023-08-20T14:07:39;32.80;69.90
21033;DHT22;10675;47.976;7.824;2023-08-20T14:10:06;32.90;67.20
21033;DHT22;10675;47.976;7.824;2023-08-20T14:12:32;33.20;66.20
21033;DHT22;10675;47.976;7.824;2023-08-20T14:14:57;33.40;67.00
21033;DHT22;10675;47.976;7.824;2023-08-20T14:17:23;33.40;68.20
21033;DHT22;10675;47.976;7.824;2023-08-20T14:19:49;33.10;68.70
21033;DHT22;10675;47.976;7.824;2023-08-20T14:22:14;33.00;69.40
21033;DHT22;10675;47.976;7.824;2023-08-20T14:24:40;32.90;70.10
21033;DHT22;10675;47.976;7.824;2023-08-20T14:27:05;32.90;71.30
21033;DHT22;10675;47.976;7.824;2023-08-20T14:29:32;32.80;69.00
21033;DHT22;10675;47.976;7.824;2023-08-20T14:31:58;32.70;70.20
21033;DHT22;10675;47.976;7.824;2023-08-20T14:34:23;32.70;70.90
21033;DHT22;10675;47.976;7.824;2023-08-20T14:36:49;32.50;71.50
21033;DHT22;10675;47.976;7.824;2023-08-20T14:39:15;32.20;71.70
21033;DHT22;10675;47.976;7.824;2023-08-20T14:41:40;32.20;73.00
21033;DHT22;10675;47.976;7.824;2023-08-20T14:44:06;32.40;70.30
21033;DHT22;10675;47.976;7.824;2023-08-20T14:46:31;32.50;69.90
21033;DHT22;10675;47.976;7.824;2023-08-20T14:48:57;32.50;71.10
21033;DHT22;10675;47.976;7.824;2023-08-20T14:51:23;32.50;72.70
21033;DHT22;10675;47.976;7.824;2023-08-20T14:53:48;32.50;72.10
21033;DHT22;10675;47.976;7.824;2023-08-20T14:56:14;32.40;71.20
21033;DHT22;10675;47.976;7.824;2023-08-20T14:58:39;32.40;72.20
21033;DHT22;10675;47.976;7.824;2023-08-20T15:01:05;32.30;70.50
21033;DHT22;10675;47.976;7.824;2023-08-20T15:03:30;32.20;70.10
21033;DHT22;10675;47.976;7.824;2023-08-20T15:05:56;32.10;71.40
21033;DHT22;10675;47.976;7.824;2023-08-20T15:08:23;32.10;70.90
21033;DHT22;10675;47.976;7.824;2023-08-20T15:10:59;32.30;71.10
21033;DHT22;10675;47.976;7.824;2023-08-20T15:13:26;32.30;72.10
21033;DHT22;10675;47.976;7.824;2023-08-20T15:15:53;32.30;72.20
21033;DHT22;10675;47.976;7.824;2023-08-20T15:18:19;32.30;71.80
21033;DHT22;10675;47.976;7.824;2023-08-20T15:20:45;32.30;70.70
21033;DHT22;10675;47.976;7.824;2023-08-20T15:23:10;32.40;71.10
21033;DHT22;10675;47.976;7.824;2023-08-20T15:25:36;32.30;72.90
21033;DHT22;10675;47.976;7.824;2023-08-20T15:28:02;32.20;73.10
21033;DHT22;10675;47.976;7.824;2023-08-20T15:30:29;32.20;70.70
21033;DHT22;10675;47.976;7.824;2023-08-20T15:32:54;32.30;69.90
21033;DHT22;10675;47.976;7.824;2023-08-20T15:35:20;32.20;70.50
21033;DHT22;10675;47.976;7.824;2023-08-20T15:37:46;32.30;70.80
21033;DHT22;10675;47.976;7.824;2023-08-20T15:40:11;32.20;71.80
21033;DHT22;10675;47.976;7.824;2023-08-20T15:42:37;32.10;73.20